createdAt,value
2023-02-28T00:02:31.231Z,51.10
2023-02-28T00:05:39.823Z,51.33
2023-02-28T00:08:46.612Z,51.50
2023-02-28T00:11:53.027Z,51.48
2023-02-28T00:14:59.839Z,50.94
2023-02-28T00:18:06.465Z,51.38
2023-02-28T00:21:15.883Z,51.05
2023-02-28T00:24:21.749Z,50.81
2023-02-28T00:27:28.528Z,51.00
2023-02-28T00:30:34.491Z,50.79
2023-02-28T00:33:45.047Z,51.00
2023-02-28T00:36:53.543Z,50.73
2023-02-28T00:40:00.416Z,51.56
2023-02-28T00:43:06.802Z,51.96
2023-02-28T00:46:13.757Z,51.69
2023-02-28T00:49:19.656Z,51.90
2023-02-28T00:52:29.115Z,51.72
2023-02-28T00:55:34.978Z,51.03
2023-02-28T00:58:41.777Z,51.80
2023-02-28T01:01:49.991Z,51.47
2023-02-28T01:04:58.024Z,51.15
2023-02-28T01:08:06.643Z,51.07
2023-02-28T01:11:16.018Z,51.07
2023-02-28T01:14:23.182Z,51.44
2023-02-28T01:17:30.086Z,51.26
2023-02-28T01:20:36.930Z,51.82
2023-02-28T01:23:47.058Z,52.57
2023-02-28T01:26:52.940Z,52.84
2023-02-28T01:30:01.786Z,52.79
2023-02-28T01:33:07.614Z,53.45
2023-02-28T01:36:19.208Z,53.85
2023-02-28T01:39:27.772Z,54.12
2023-02-28T01:42:34.515Z,54.47
2023-02-28T01:45:41.152Z,54.99
2023-02-28T01:48:55.344Z,55.12
2023-02-28T01:52:01.670Z,55.47
2023-02-28T01:55:16.113Z,54.96
2023-02-28T01:58:22.856Z,55.12
2023-02-28T02:01:34.753Z,54.83
2023-02-28T02:04:51.241Z,54.74
2023-02-28T02:08:06.261Z,55.10
2023-02-28T02:11:25.772Z,55.12
2023-02-28T02:14:55.269Z,54.70
2023-02-28T02:18:13.106Z,55.19
2023-02-28T02:22:00.093Z,55.52
2023-02-28T02:25:36.402Z,55.44
2023-02-28T02:29:33.254Z,55.71
2023-02-28T02:33:21.895Z,56.08
2023-02-28T02:36:39.596Z,56.59
2023-02-28T02:40:08.641Z,56.44
2023-02-28T02:43:28.588Z,56.83
2023-02-28T02:46:43.667Z,57.63
2023-02-28T02:49:59.729Z,57.67
2023-02-28T02:53:13.110Z,57.61
2023-02-28T02:56:30.190Z,57.69
2023-02-28T02:59:42.071Z,57.67
2023-02-28T03:02:53.436Z,57.91
2023-02-28T03:06:04.996Z,58.32
2023-02-28T03:09:21.171Z,58.56
2023-02-28T03:12:43.921Z,58.43
2023-02-28T03:16:17.055Z,59.39
2023-02-28T03:20:01.640Z,59.29
2023-02-28T03:23:23.491Z,59.77
2023-02-28T03:26:33.787Z,59.94
2023-02-28T03:29:50.334Z,60.30
2023-02-28T03:33:07.825Z,60.84
2023-02-28T03:36:24.027Z,61.38
2023-02-28T03:39:43.559Z,61.74
2023-02-28T03:43:04.923Z,61.87
2023-02-28T03:46:22.328Z,62.11
2023-02-28T03:49:39.357Z,62.03
2023-02-28T03:52:54.450Z,62.37
2023-02-28T03:56:12.773Z,62.38
2023-02-28T03:59:37.211Z,62.79
2023-02-28T04:02:44.275Z,63.11
2023-02-28T04:05:57.287Z,63.61
2023-02-28T04:09:04.933Z,63.71
2023-02-28T04:12:12.109Z,64.07
2023-02-28T04:15:24.001Z,64.37
2023-02-28T04:18:30.010Z,65.17
2023-02-28T04:21:40.197Z,65.39
2023-02-28T04:24:48.042Z,65.50
2023-02-28T04:27:58.698Z,65.72
2023-02-28T04:31:14.426Z,65.73
2023-02-28T04:34:22.413Z,65.87
2023-02-28T04:37:30.493Z,66.49
2023-02-28T04:40:37.156Z,66.85
2023-02-28T04:43:43.117Z,67.28
2023-02-28T04:46:53.460Z,67.65
2023-02-28T04:49:59.462Z,67.75
2023-02-28T04:53:06.113Z,67.95
2023-02-28T04:56:16.184Z,68.09
2023-02-28T04:59:22.886Z,68.51
2023-02-28T05:02:31.455Z,68.48
2023-02-28T05:05:38.241Z,68.27
2023-02-28T05:08:44.922Z,68.65
2023-02-28T05:11:51.550Z,68.98
2023-02-28T05:14:57.479Z,69.42
2023-02-28T05:18:12.404Z,69.32
2023-02-28T05:21:35.285Z,69.29
2023-02-28T05:24:43.491Z,69.44
2023-02-28T05:27:55.248Z,69.68
2023-02-28T05:31:08.718Z,70.05
2023-02-28T05:34:18.996Z,70.32
2023-02-28T05:37:25.705Z,70.49
2023-02-28T05:40:31.665Z,70.68
2023-02-28T05:43:38.985Z,70.50
2023-02-28T05:46:44.854Z,70.77
2023-02-28T05:49:54.687Z,70.80
2023-02-28T05:53:00.626Z,70.85
2023-02-28T05:56:09.257Z,70.92
2023-02-28T05:59:15.484Z,70.91
2023-02-28T06:02:22.624Z,70.71
2023-02-28T06:05:31.859Z,70.65
2023-02-28T06:08:38.546Z,70.81
2023-02-28T06:11:44.608Z,70.89
2023-02-28T06:14:51.304Z,71.22
2023-02-28T06:17:57.617Z,70.56
2023-02-28T06:21:07.354Z,70.46
2023-02-28T06:24:13.543Z,70.09
2023-02-28T06:27:20.698Z,69.36
2023-02-28T06:30:29.375Z,69.26
2023-02-28T06:33:36.101Z,68.56
2023-02-28T06:36:46.277Z,68.70
2023-02-28T06:39:57.041Z,68.03
2023-02-28T06:43:15.672Z,67.68
2023-02-28T06:46:28.392Z,66.27
2023-02-28T06:49:35.017Z,65.17
2023-02-28T06:52:44.476Z,64.23
2023-02-28T06:55:55.055Z,61.68
2023-02-28T06:59:11.357Z,61.00
2023-02-28T07:02:17.171Z,61.09
2023-02-28T07:05:24.014Z,61.91
2023-02-28T07:08:32.920Z,61.03
2023-02-28T07:11:39.678Z,60.30
2023-02-28T07:14:45.683Z,60.61
2023-02-28T07:17:52.414Z,60.17
2023-02-28T07:20:58.381Z,59.56
2023-02-28T07:24:08.543Z,60.45
2023-02-28T07:27:26.839Z,61.18
2023-02-28T07:30:33.565Z,60.18
2023-02-28T07:33:41.847Z,60.69
2023-02-28T07:36:48.582Z,60.45
2023-02-28T07:39:58.424Z,57.50
2023-02-28T07:43:07.922Z,54.48
2023-02-28T07:46:17.833Z,52.09
2023-02-28T07:49:25.202Z,53.09
2023-02-28T07:52:31.195Z,51.49
2023-02-28T07:55:40.503Z,50.99
2023-02-28T07:58:46.364Z,49.22
2023-02-28T08:01:53.493Z,49.40
2023-02-28T08:04:59.569Z,49.39
2023-02-28T08:08:09.458Z,48.97
2023-02-28T08:11:18.905Z,48.52
2023-02-28T08:14:26.960Z,49.54
2023-02-28T08:17:35.333Z,50.49
2023-02-28T08:20:42.893Z,50.31
2023-02-28T08:23:50.797Z,50.21
2023-02-28T08:27:00.593Z,50.47
2023-02-28T08:30:09.324Z,50.54
2023-02-28T08:33:17.126Z,51.08
2023-02-28T08:36:23.972Z,51.25
2023-02-28T08:39:30.778Z,50.82
2023-02-28T08:42:40.073Z,50.46
2023-02-28T08:45:46.991Z,49.32
2023-02-28T08:49:00.474Z,49.59
2023-02-28T08:52:14.724Z,49.52
2023-02-28T08:55:20.757Z,48.99
2023-02-28T08:58:30.683Z,48.84
2023-02-28T09:01:37.845Z,49.41
2023-02-28T09:04:46.576Z,49.93
2023-02-28T09:07:53.812Z,48.65
2023-02-28T09:11:07.714Z,48.38
2023-02-28T09:14:18.650Z,47.10
2023-02-28T09:17:25.608Z,46.88
2023-02-28T09:20:36.467Z,46.91
2023-02-28T09:23:43.443Z,46.38
2023-02-28T09:26:56.801Z,45.43
2023-02-28T09:30:16.482Z,44.55
2023-02-28T09:33:24.787Z,44.29
2023-02-28T09:36:44.791Z,43.60
2023-02-28T09:39:51.371Z,43.97
2023-02-28T09:43:03.711Z,44.04
2023-02-28T09:46:35.684Z,44.33
2023-02-28T09:49:50.217Z,43.94
2023-02-28T09:52:59.742Z,42.24
2023-02-28T09:56:13.272Z,40.12
2023-02-28T09:59:38.165Z,39.54
2023-02-28T10:03:24.858Z,40.31
2023-02-28T10:06:39.383Z,38.57
2023-02-28T10:09:46.479Z,38.03
2023-02-28T10:13:00.006Z,37.29
2023-02-28T10:16:15.425Z,37.99
2023-02-28T10:19:34.732Z,36.10
2023-02-28T10:22:57.266Z,36.01
2023-02-28T10:26:17.207Z,35.92
2023-02-28T10:29:23.988Z,36.56
2023-02-28T10:32:35.563Z,37.90
2023-02-28T10:35:44.920Z,36.31
2023-02-28T10:38:52.871Z,35.03
2023-02-28T10:41:59.619Z,35.04
2023-02-28T10:45:18.510Z,34.71
2023-02-28T10:48:38.209Z,35.41
2023-02-28T10:51:46.746Z,35.46
2023-02-28T10:54:53.985Z,35.92
2023-02-28T10:57:59.961Z,36.32
2023-02-28T11:01:07.029Z,35.95
2023-02-28T11:04:37.073Z,36.34
2023-02-28T11:07:55.733Z,34.70
2023-02-28T11:11:09.108Z,35.39
2023-02-28T11:14:26.136Z,34.52
2023-02-28T11:17:35.662Z,34.89
2023-02-28T11:20:44.549Z,34.88
2023-02-28T11:24:02.817Z,35.05
2023-02-28T11:27:11.804Z,34.87
2023-02-28T11:30:40.327Z,34.75
2023-02-28T11:33:52.662Z,35.04
2023-02-28T11:37:04.895Z,35.47
2023-02-28T11:40:19.766Z,34.64
2023-02-28T11:43:55.856Z,35.16
2023-02-28T11:47:14.137Z,35.24
2023-02-28T11:50:42.246Z,35.02
2023-02-28T11:54:18.983Z,35.05
2023-02-28T11:57:52.751Z,37.00
2023-02-28T12:01:19.004Z,36.59
2023-02-28T12:04:46.085Z,37.12
2023-02-28T12:08:19.711Z,37.20
2023-02-28T12:11:53.661Z,34.14
2023-02-28T12:15:32.372Z,34.32
2023-02-28T12:19:10.411Z,34.71
2023-02-28T12:22:33.863Z,35.55
2023-02-28T12:25:59.904Z,35.09
2023-02-28T12:29:21.585Z,36.56
2023-02-28T12:32:45.769Z,34.76
2023-02-28T12:35:59.864Z,35.17
2023-02-28T12:39:14.150Z,34.03
2023-02-28T12:42:32.456Z,34.09
2023-02-28T12:45:50.270Z,35.08
2023-02-28T12:49:14.468Z,33.98
2023-02-28T12:52:32.669Z,34.15
2023-02-28T12:55:54.404Z,33.82
2023-02-28T12:59:08.231Z,34.46
2023-02-28T13:02:59.462Z,34.63
2023-02-28T13:06:53.523Z,34.88
2023-02-28T13:10:08.804Z,34.66
2023-02-28T13:13:30.804Z,36.08
2023-02-28T13:17:01.293Z,35.52
2023-02-28T13:20:08.309Z,35.65
2023-02-28T13:24:03.260Z,36.41
2023-02-28T13:27:43.909Z,35.69
2023-02-28T13:31:12.559Z,36.33
2023-02-28T13:34:20.855Z,36.72
2023-02-28T13:37:48.907Z,36.44
2023-02-28T13:40:55.005Z,37.17
2023-02-28T13:44:11.780Z,38.42
2023-02-28T13:47:33.744Z,40.29
2023-02-28T13:50:42.964Z,40.58
2023-02-28T13:54:13.771Z,41.02
2023-02-28T13:57:46.101Z,43.02
2023-02-28T14:01:44.398Z,43.30
2023-02-28T14:05:06.191Z,43.50
2023-02-28T14:08:22.800Z,44.06
2023-02-28T14:11:36.061Z,43.32
2023-02-28T14:15:00.915Z,43.39
2023-02-28T14:18:27.269Z,43.78
2023-02-28T14:21:38.418Z,44.37
2023-02-28T14:25:14.818Z,44.52
2023-02-28T14:28:45.860Z,44.81
2023-02-28T14:32:12.845Z,44.52
2023-02-28T14:36:06.107Z,45.04
2023-02-28T14:39:26.737Z,44.14
2023-02-28T14:42:39.260Z,45.03
2023-02-28T14:45:46.135Z,44.61
2023-02-28T14:48:54.424Z,44.50
2023-02-28T14:52:19.147Z,44.83
2023-02-28T14:55:32.134Z,44.79
2023-02-28T14:58:39.012Z,43.84
2023-02-28T15:01:45.008Z,44.30
2023-02-28T15:05:00.981Z,44.39
2023-02-28T15:08:18.941Z,44.23
2023-02-28T15:11:26.134Z,44.47
2023-02-28T15:14:32.342Z,44.82
2023-02-28T15:17:40.463Z,44.60
2023-02-28T15:20:49.506Z,45.20
2023-02-28T15:24:04.834Z,45.68
2023-02-28T15:27:19.022Z,44.69
2023-02-28T15:30:33.854Z,45.08
2023-02-28T15:33:40.560Z,45.49
2023-02-28T15:36:47.299Z,46.23
2023-02-28T15:39:58.601Z,46.52
2023-02-28T15:43:11.505Z,47.21
2023-02-28T15:46:19.204Z,46.55
2023-02-28T15:49:27.786Z,46.32
2023-02-28T15:52:44.926Z,46.78
2023-02-28T15:56:04.985Z,46.66
2023-02-28T15:59:20.455Z,46.84
2023-02-28T16:02:36.650Z,46.90
2023-02-28T16:05:42.724Z,46.56
2023-02-28T16:08:52.374Z,46.59
2023-02-28T16:12:06.618Z,47.26
2023-02-28T16:15:27.252Z,47.06
2023-02-28T16:18:35.728Z,47.18
2023-02-28T16:21:44.672Z,47.34
2023-02-28T16:24:50.731Z,47.89
2023-02-28T16:28:10.853Z,48.47
2023-02-28T16:31:20.271Z,48.25
2023-02-28T16:34:31.350Z,49.04
2023-02-28T16:37:39.616Z,49.11
2023-02-28T16:40:46.992Z,49.80
2023-02-28T16:44:01.378Z,49.37
2023-02-28T16:47:15.727Z,50.02
2023-02-28T16:50:29.652Z,50.26
2023-02-28T16:53:36.696Z,50.23
2023-02-28T16:56:51.193Z,50.85
2023-02-28T17:00:01.889Z,51.17
2023-02-28T17:03:11.693Z,51.14
2023-02-28T17:06:26.032Z,51.95
2023-02-28T17:09:42.389Z,52.01
2023-02-28T17:12:49.341Z,52.50
2023-02-28T17:15:58.575Z,52.19
2023-02-28T17:19:10.176Z,52.52
2023-02-28T17:22:16.119Z,52.78
2023-02-28T17:25:24.490Z,52.95
2023-02-28T17:28:34.613Z,53.26
2023-02-28T17:31:47.790Z,53.45
2023-02-28T17:34:54.575Z,53.77
2023-02-28T17:38:01.468Z,53.75
2023-02-28T17:41:15.641Z,53.72
2023-02-28T17:44:22.700Z,53.90
2023-02-28T17:47:31.386Z,53.69
2023-02-28T17:50:38.111Z,53.62
2023-02-28T17:53:44.612Z,53.79
2023-02-28T17:56:51.669Z,53.96
2023-02-28T18:00:02.752Z,54.10
2023-02-28T18:03:35.572Z,54.41
2023-02-28T18:06:51.238Z,54.49
2023-02-28T18:09:58.057Z,54.88
2023-02-28T18:13:04.906Z,55.00
2023-02-28T18:16:12.873Z,54.94
2023-02-28T18:19:21.959Z,55.22
2023-02-28T18:22:28.878Z,55.41
2023-02-28T18:25:34.774Z,55.64
2023-02-28T18:28:42.734Z,55.50
2023-02-28T18:31:49.215Z,55.59
2023-02-28T18:34:58.799Z,56.35
2023-02-28T18:38:09.075Z,56.09
2023-02-28T18:41:16.413Z,56.36
2023-02-28T18:44:22.561Z,56.49
2023-02-28T18:47:29.473Z,56.24
2023-02-28T18:50:42.005Z,56.66
2023-02-28T18:53:50.207Z,57.19
2023-02-28T18:56:56.472Z,56.97
2023-02-28T19:00:03.391Z,57.07
2023-02-28T19:03:09.334Z,57.26
2023-02-28T19:06:19.279Z,57.04
2023-02-28T19:09:25.222Z,57.18
2023-02-28T19:12:31.936Z,57.43
2023-02-28T19:15:37.870Z,57.25
2023-02-28T19:18:45.380Z,57.51
2023-02-28T19:21:55.503Z,57.41
2023-02-28T19:25:03.070Z,57.55
2023-02-28T19:28:09.134Z,57.64
2023-02-28T19:31:19.885Z,57.69
2023-02-28T19:34:26.979Z,57.84
2023-02-28T19:37:40.654Z,57.73
2023-02-28T19:40:46.890Z,57.71
2023-02-28T19:43:55.720Z,57.68
2023-02-28T19:47:01.779Z,58.00
2023-02-28T19:50:10.187Z,58.11
2023-02-28T19:53:18.771Z,58.04
2023-02-28T19:56:26.307Z,58.13
2023-02-28T19:59:39.221Z,58.61
2023-02-28T20:02:46.927Z,58.57
2023-02-28T20:06:05.191Z,58.61
2023-02-28T20:09:15.644Z,58.70
2023-02-28T20:12:24.682Z,59.10
2023-02-28T20:15:32.566Z,59.00
2023-02-28T20:18:39.116Z,59.45
2023-02-28T20:21:45.999Z,59.51
2023-02-28T20:24:54.603Z,59.84
2023-02-28T20:28:01.506Z,59.87
2023-02-28T20:31:15.444Z,60.25
2023-02-28T20:34:27.340Z,60.39
2023-02-28T20:37:33.386Z,60.42
2023-02-28T20:40:42.979Z,60.58
2023-02-28T20:43:49.540Z,61.22
2023-02-28T20:46:56.430Z,61.29
2023-02-28T20:50:02.355Z,61.71
2023-02-28T20:53:09.115Z,62.27
2023-02-28T20:56:21.407Z,62.15
2023-02-28T20:59:28.232Z,61.89
2023-02-28T21:02:34.439Z,62.52
2023-02-28T21:05:41.171Z,62.72
2023-02-28T21:08:48.212Z,62.98
2023-02-28T21:11:59.249Z,62.75
2023-02-28T21:15:05.375Z,62.65
2023-02-28T21:18:12.235Z,63.07
2023-02-28T21:21:22.258Z,63.40
2023-02-28T21:24:29.033Z,63.31
2023-02-28T21:27:38.029Z,63.78
2023-02-28T21:30:44.831Z,64.13
2023-02-28T21:33:51.449Z,65.19
2023-02-28T21:36:58.269Z,65.50
2023-02-28T21:40:04.301Z,65.27
2023-02-28T21:43:13.777Z,65.80
2023-02-28T21:46:23.651Z,66.33
2023-02-28T21:49:31.049Z,67.02
2023-02-28T21:52:37.094Z,67.73
2023-02-28T21:55:44.113Z,67.71
2023-02-28T21:59:00.820Z,68.14
2023-02-28T22:02:10.903Z,68.34
2023-02-28T22:05:16.874Z,68.59
2023-02-28T22:08:23.967Z,68.21
2023-02-28T22:11:30.199Z,68.27
2023-02-28T22:14:41.924Z,68.15
2023-02-28T22:17:48.253Z,68.48
2023-02-28T22:20:58.205Z,68.61
2023-02-28T22:24:04.223Z,68.69
2023-02-28T22:27:11.096Z,68.49
2023-02-28T22:30:21.111Z,68.77
2023-02-28T22:33:29.791Z,69.23
2023-02-28T22:36:36.502Z,69.38
2023-02-28T22:39:44.056Z,69.02
2023-02-28T22:42:50.929Z,69.58
2023-02-28T22:46:03.862Z,69.80
2023-02-28T22:49:10.138Z,70.23
2023-02-28T22:52:16.955Z,70.12
2023-02-28T22:55:22.968Z,70.00
2023-02-28T22:58:30.945Z,70.52
2023-02-28T23:01:40.853Z,70.48
2023-02-28T23:04:47.771Z,70.70
2023-02-28T23:07:53.801Z,69.84
2023-02-28T23:11:01.030Z,70.10
2023-02-28T23:14:08.785Z,70.14
2023-02-28T23:17:18.177Z,70.03
2023-02-28T23:20:24.947Z,70.00
2023-02-28T23:23:32.073Z,70.70
2023-02-28T23:26:38.195Z,70.99
2023-02-28T23:29:45.235Z,70.80
2023-02-28T23:32:54.107Z,70.74
2023-02-28T23:36:04.314Z,70.68
2023-02-28T23:39:10.303Z,70.81
2023-02-28T23:42:17.110Z,70.83
2023-02-28T23:45:23.307Z,71.01
2023-02-28T23:48:32.973Z,70.81
2023-02-28T23:51:39.592Z,71.17
2023-02-28T23:54:47.068Z,71.17
2023-02-28T23:57:53.026Z,70.88
